createdAt,value
2016-07-03T00:00:08.771Z,15.2
2016-07-03T00:00:18.765Z,15.1
2016-07-03T00:00:28.759Z,15.2
2016-07-03T00:00:38.755Z,15.2
2016-07-03T00:00:48.748Z,15.2
2016-07-03T00:00:58.743Z,15.2
2016-07-03T00:01:08.739Z,15.2
2016-07-03T00:01:18.737Z,15.3
2016-07-03T00:01:28.732Z,15.2
2016-07-03T00:01:38.726Z,15.2
2016-07-03T00:01:48.721Z,15.2
2016-07-03T00:01:58.715Z,15.1
2016-07-03T00:02:08.710Z,15.2
2016-07-03T00:02:18.705Z,15.2
2016-07-03T00:02:28.698Z,15.2
2016-07-03T00:02:38.696Z,15.2
2016-07-03T00:02:48.688Z,15.2
2016-07-03T00:02:58.688Z,15.2
2016-07-03T00:03:08.680Z,15.2
2016-07-03T00:03:18.675Z,15.2
2016-07-03T00:03:28.669Z,15.2
2016-07-03T00:03:38.665Z,15.2
2016-07-03T00:03:48.659Z,15.1
2016-07-03T00:03:58.655Z,15.2
2016-07-03T00:04:08.650Z,15.2
2016-07-03T00:04:18.643Z,15.2
2016-07-03T00:04:28.639Z,15.2
2016-07-03T00:04:38.635Z,15.2
2016-07-03T00:04:48.627Z,15.1
2016-07-03T00:04:58.622Z,15.1
2016-07-03T00:05:08.619Z,15.2
2016-07-03T00:05:18.614Z,15.2
2016-07-03T00:05:28.610Z,15.1
2016-07-03T00:05:38.604Z,15.1
2016-07-03T00:05:48.598Z,15.1
2016-07-03T00:05:58.598Z,15.1
2016-07-03T00:06:08.588Z,15.1
2016-07-03T00:06:18.585Z,15.1
2016-07-03T00:06:28.576Z,15.1
2016-07-03T00:06:38.576Z,15
2016-07-03T00:06:48.569Z,15.2
2016-07-03T00:06:58.564Z,15.1
2016-07-03T00:07:08.560Z,15.1
2016-07-03T00:07:18.553Z,15.1
2016-07-03T00:07:28.549Z,15.1
2016-07-03T00:07:38.542Z,15.1
2016-07-03T00:07:48.538Z,15.1
2016-07-03T00:07:58.530Z,15.1
2016-07-03T00:08:08.529Z,15.1
2016-07-03T00:08:18.520Z,15.1
2016-07-03T00:08:28.518Z,15.1
2016-07-03T00:08:38.514Z,15.1
2016-07-03T00:08:48.511Z,15.1
2016-07-03T00:08:58.503Z,15
2016-07-03T00:09:08.499Z,15.1
2016-07-03T00:09:18.494Z,15
2016-07-03T00:09:28.489Z,15.1
2016-07-03T00:09:38.483Z,15.1
2016-07-03T00:09:48.480Z,15.2
2016-07-03T00:09:58.473Z,15.1
2016-07-03T00:10:08.467Z,15.1
2016-07-03T00:10:18.463Z,15.1
2016-07-03T00:10:28.457Z,15.1
2016-07-03T00:10:38.453Z,15.1
2016-07-03T00:10:48.446Z,15.1
2016-07-03T00:10:58.443Z,15.1
2016-07-03T00:11:08.439Z,15.1
2016-07-03T00:11:18.433Z,15.1
2016-07-03T00:11:28.429Z,15.1
2016-07-03T00:11:38.424Z,15.1
2016-07-03T00:11:48.417Z,15.2
2016-07-03T00:11:58.413Z,15.1
2016-07-03T00:12:08.413Z,15.1
2016-07-03T00:12:18.403Z,15.1
2016-07-03T00:12:28.398Z,15.1
2016-07-03T00:12:38.392Z,15.1
2016-07-03T00:12:48.388Z,15.1
2016-07-03T00:12:58.383Z,15.1
2016-07-03T00:13:08.377Z,15.1
2016-07-03T00:13:18.372Z,15.1
2016-07-03T00:13:28.368Z,15.1
2016-07-03T00:13:38.362Z,15.1
2016-07-03T00:13:48.357Z,15.2
2016-07-03T00:13:58.351Z,15.1
2016-07-03T00:14:08.347Z,15.1
2016-07-03T00:14:18.342Z,15.1
2016-07-03T00:14:28.337Z,15.1
2016-07-03T00:14:38.332Z,15.2
2016-07-03T00:14:48.328Z,15.2
2016-07-03T00:14:58.322Z,15.2
2016-07-03T00:15:08.318Z,15.2
2016-07-03T00:15:18.312Z,15.2
2016-07-03T00:15:28.306Z,15.1
2016-07-03T00:15:38.302Z,15.1
2016-07-03T00:15:48.296Z,15.2
2016-07-03T00:15:58.291Z,15.2
2016-07-03T00:16:08.286Z,15.1
2016-07-03T00:16:18.281Z,15.1
2016-07-03T00:16:28.273Z,15.1
2016-07-03T00:16:38.271Z,15.2
2016-07-03T00:16:48.268Z,15.1
2016-07-03T00:16:58.263Z,15.2
2016-07-03T00:17:08.256Z,15.1
2016-07-03T00:17:18.253Z,15.1
2016-07-03T00:17:28.245Z,15.2
2016-07-03T00:17:38.242Z,15.2
2016-07-03T00:17:48.236Z,15.1
2016-07-03T00:17:58.228Z,15.1
2016-07-03T00:18:08.225Z,15.2
2016-07-03T00:18:18.219Z,15.1
2016-07-03T00:18:28.216Z,15.1
2016-07-03T00:18:38.211Z,15.1
2016-07-03T00:18:48.206Z,15
2016-07-03T00:18:58.201Z,15.1
2016-07-03T00:19:08.194Z,15.2
2016-07-03T00:19:18.191Z,15.1
2016-07-03T00:19:28.186Z,15.1
2016-07-03T00:19:38.181Z,15.1
2016-07-03T00:19:48.175Z,15.1
2016-07-03T00:19:58.170Z,15.1
2016-07-03T00:20:08.170Z,15.1
2016-07-03T00:20:18.160Z,15.1
2016-07-03T00:20:28.155Z,15.2
2016-07-03T00:20:38.150Z,15.1
2016-07-03T00:20:48.146Z,15.1
2016-07-03T00:20:58.141Z,15.1
2016-07-03T00:21:08.134Z,15.1
2016-07-03T00:21:18.131Z,15.1
2016-07-03T00:21:28.127Z,15.1
2016-07-03T00:21:38.120Z,15.1
2016-07-03T00:21:48.115Z,15.2
2016-07-03T00:21:58.111Z,15.1
2016-07-03T00:22:08.111Z,15.1
2016-07-03T00:22:18.102Z,15.1
2016-07-03T00:22:28.093Z,15.1
2016-07-03T00:22:38.091Z,15.1
2016-07-03T00:22:48.088Z,15
2016-07-03T00:22:58.081Z,15
2016-07-03T00:23:08.076Z,15.1
2016-07-03T00:23:18.071Z,15.1
2016-07-03T00:23:28.064Z,15.1
2016-07-03T00:23:38.061Z,15
2016-07-03T00:23:48.055Z,15.1
2016-07-03T00:23:58.051Z,15
2016-07-03T00:24:08.045Z,15.1
2016-07-03T00:24:18.041Z,15.1
2016-07-03T00:24:28.037Z,15
2016-07-03T00:24:38.030Z,15
2016-07-03T00:24:48.024Z,15
2016-07-03T00:24:58.020Z,15
2016-07-03T00:25:08.013Z,15.1
2016-07-03T00:25:18.014Z,15
2016-07-03T00:25:28.004Z,15
2016-07-03T00:25:37.999Z,15.1
2016-07-03T00:25:47.993Z,15
2016-07-03T00:25:57.988Z,15
2016-07-03T00:26:07.982Z,15.1
2016-07-03T00:26:17.978Z,15.1
2016-07-03T00:26:27.973Z,15
2016-07-03T00:26:37.968Z,15
2016-07-03T00:26:47.963Z,15.1
2016-07-03T00:26:57.958Z,15
2016-07-03T00:27:07.954Z,15
2016-07-03T00:27:17.948Z,15
2016-07-03T00:27:27.945Z,15
2016-07-03T00:27:37.940Z,15.1
2016-07-03T00:27:47.934Z,15.1
2016-07-03T00:27:57.928Z,15
2016-07-03T00:28:07.923Z,15
2016-07-03T00:28:17.918Z,15.1
2016-07-03T00:28:27.918Z,15
2016-07-03T00:28:37.907Z,15.1
2016-07-03T00:28:47.915Z,15
2016-07-03T00:28:57.899Z,15
2016-07-03T00:29:07.893Z,15
2016-07-03T00:29:17.886Z,15
2016-07-03T00:29:27.884Z,15
2016-07-03T00:29:37.879Z,15.1
2016-07-03T00:29:47.876Z,15.1
2016-07-03T00:29:57.870Z,15.1
2016-07-03T00:30:07.865Z,15
2016-07-03T00:30:17.861Z,15
2016-07-03T00:30:27.852Z,15.1
2016-07-03T00:30:37.851Z,15
2016-07-03T00:30:47.844Z,15
2016-07-03T00:30:57.842Z,15
2016-07-03T00:31:07.836Z,15
2016-07-03T00:31:17.828Z,15.1
2016-07-03T00:31:27.826Z,15.1
2016-07-03T00:31:37.821Z,15
2016-07-03T00:31:47.812Z,15.1
2016-07-03T00:31:57.810Z,15.1
2016-07-03T00:32:07.804Z,15
2016-07-03T00:32:17.799Z,15
2016-07-03T00:32:27.795Z,15
2016-07-03T00:32:37.790Z,15
2016-07-03T00:32:47.785Z,15
2016-07-03T00:32:57.780Z,15
2016-07-03T00:33:07.772Z,15
2016-07-03T00:33:17.770Z,15
2016-07-03T00:33:27.769Z,15
2016-07-03T00:33:37.758Z,15.1
2016-07-03T00:33:47.755Z,15
2016-07-03T00:33:57.750Z,15.1
2016-07-03T00:34:07.741Z,15
2016-07-03T00:34:17.738Z,15
2016-07-03T00:34:27.734Z,15
2016-07-03T00:34:37.726Z,15
2016-07-03T00:34:47.724Z,15
2016-07-03T00:34:57.719Z,15
2016-07-03T00:35:07.712Z,15.1
2016-07-03T00:35:17.709Z,15.1
2016-07-03T00:35:27.706Z,15.1
2016-07-03T00:35:37.700Z,14.9
2016-07-03T00:35:47.693Z,15
2016-07-03T00:35:57.687Z,14.9
2016-07-03T00:36:07.684Z,15
2016-07-03T00:36:17.678Z,15
2016-07-03T00:36:27.674Z,14.9
2016-07-03T00:36:37.669Z,15
2016-07-03T00:36:47.660Z,15
2016-07-03T00:36:57.668Z,15
2016-07-03T00:37:07.652Z,14.9
2016-07-03T00:37:17.655Z,15
2016-07-03T00:37:27.644Z,14.9
2016-07-03T00:37:37.638Z,15
2016-07-03T00:37:47.634Z,14.9
2016-07-03T00:37:57.628Z,15
2016-07-03T00:38:07.623Z,15.1
2016-07-03T00:38:17.618Z,15
2016-07-03T00:38:27.613Z,15
2016-07-03T00:38:37.608Z,15
2016-07-03T00:38:47.604Z,15
2016-07-03T00:38:57.599Z,15
2016-07-03T00:39:07.596Z,15
2016-07-03T00:39:17.588Z,15
2016-07-03T00:39:27.583Z,15.1
2016-07-03T00:39:37.590Z,15.1
2016-07-03T00:39:47.572Z,15
2016-07-03T00:39:57.569Z,14.9
2016-07-03T00:40:07.563Z,14.9
2016-07-03T00:40:17.557Z,15
2016-07-03T00:40:27.553Z,15
2016-07-03T00:40:37.548Z,15
2016-07-03T00:40:47.545Z,15
2016-07-03T00:40:57.537Z,15
2016-07-03T00:41:07.530Z,14.9
2016-07-03T00:41:17.529Z,14.9
2016-07-03T00:41:27.523Z,15
2016-07-03T00:41:37.515Z,14.9
2016-07-03T00:41:47.513Z,14.9
2016-07-03T00:41:57.507Z,15
2016-07-03T00:42:07.501Z,14.9
2016-07-03T00:42:17.498Z,14.9
2016-07-03T00:42:27.492Z,14.9
2016-07-03T00:42:37.485Z,15
2016-07-03T00:42:47.480Z,14.9
2016-07-03T00:42:57.475Z,15
2016-07-03T00:43:07.472Z,14.9
2016-07-03T00:43:17.467Z,14.9
2016-07-03T00:43:27.463Z,14.9
2016-07-03T00:43:37.456Z,14.9
2016-07-03T00:43:47.448Z,15
2016-07-03T00:43:57.445Z,14.9
2016-07-03T00:44:07.440Z,14.9
2016-07-03T00:44:17.436Z,15
2016-07-03T00:44:27.432Z,14.9
2016-07-03T00:44:37.425Z,15
2016-07-03T00:44:47.421Z,14.9
2016-07-03T00:44:57.416Z,14.9
2016-07-03T00:45:07.411Z,14.9
2016-07-03T00:45:17.407Z,15
2016-07-03T00:45:27.402Z,15
2016-07-03T00:45:37.401Z,14.9
2016-07-03T00:45:47.393Z,14.9
2016-07-03T00:45:57.385Z,15
2016-07-03T00:46:07.379Z,14.9
2016-07-03T00:46:17.376Z,14.9
2016-07-03T00:46:27.370Z,14.9
2016-07-03T00:46:37.367Z,15
2016-07-03T00:46:47.361Z,14.9
2016-07-03T00:46:57.356Z,14.9
2016-07-03T00:47:07.351Z,14.9
2016-07-03T00:47:17.345Z,14.9
2016-07-03T00:47:27.341Z,15
2016-07-03T00:47:37.335Z,14.9
2016-07-03T00:47:47.330Z,14.9
2016-07-03T00:47:57.325Z,14.9
2016-07-03T00:48:07.321Z,15
2016-07-03T00:48:17.314Z,14.9
2016-07-03T00:48:27.316Z,15
2016-07-03T00:48:37.306Z,15
2016-07-03T00:48:47.300Z,14.9
2016-07-03T00:48:57.295Z,15
2016-07-03T00:49:07.290Z,14.9
2016-07-03T00:49:17.283Z,15
2016-07-03T00:49:27.283Z,14.9
2016-07-03T00:49:37.275Z,15
2016-07-03T00:49:47.270Z,14.9
2016-07-03T00:49:57.264Z,14.9
2016-07-03T00:50:07.259Z,14.9
2016-07-03T00:50:17.255Z,14.9
2016-07-03T00:50:27.249Z,15
2016-07-03T00:50:37.245Z,14.9
2016-07-03T00:50:47.241Z,15
2016-07-03T00:50:57.235Z,14.9
2016-07-03T00:51:07.231Z,14.9
2016-07-03T00:51:17.225Z,14.9
2016-07-03T00:51:27.219Z,14.9
2016-07-03T00:51:37.216Z,14.9
2016-07-03T00:51:47.213Z,14.9
2016-07-03T00:51:57.204Z,14.9
2016-07-03T00:52:07.200Z,14.9
2016-07-03T00:52:17.192Z,14.9
2016-07-03T00:52:27.188Z,14.9
2016-07-03T00:52:37.184Z,14.9
2016-07-03T00:52:47.180Z,14.9
2016-07-03T00:52:57.175Z,14.9
2016-07-03T00:53:07.169Z,15
2016-07-03T00:53:17.164Z,15
2016-07-03T00:53:27.164Z,14.9
2016-07-03T00:53:37.152Z,14.9
2016-07-03T00:53:47.147Z,14.9
2016-07-03T00:53:57.143Z,14.9
2016-07-03T00:54:07.140Z,14.9
2016-07-03T00:54:17.134Z,14.9
2016-07-03T00:54:27.126Z,14.9
2016-07-03T00:54:37.124Z,14.9
2016-07-03T00:54:47.119Z,15
2016-07-03T00:54:57.113Z,14.8
2016-07-03T00:55:07.108Z,15
2016-07-03T00:55:17.103Z,14.9
2016-07-03T00:55:27.097Z,15
2016-07-03T00:55:37.094Z,14.9
2016-07-03T00:55:47.088Z,14.9
2016-07-03T00:55:57.083Z,14.9
2016-07-03T00:56:07.078Z,14.9
2016-07-03T00:56:17.072Z,14.9
2016-07-03T00:56:27.069Z,14.9
2016-07-03T00:56:37.062Z,14.9
2016-07-03T00:56:47.058Z,15
2016-07-03T00:56:57.054Z,14.9
2016-07-03T00:57:07.051Z,14.8
2016-07-03T00:57:17.042Z,14.9
2016-07-03T00:57:27.042Z,15
2016-07-03T00:57:37.032Z,14.9
2016-07-03T00:57:47.027Z,14.8
2016-07-03T00:57:57.021Z,14.9
2016-07-03T00:58:07.016Z,14.9
2016-07-03T00:58:17.012Z,14.9
2016-07-03T00:58:27.007Z,14.8
2016-07-03T00:58:37.002Z,14.9
2016-07-03T00:58:46.997Z,14.9
2016-07-03T00:58:56.993Z,14.9
2016-07-03T00:59:06.988Z,14.9
2016-07-03T00:59:16.981Z,14.8
2016-07-03T00:59:26.977Z,15
2016-07-03T00:59:36.972Z,14.8
2016-07-03T00:59:46.963Z,14.9
2016-07-03T00:59:56.957Z,14.9
2016-07-03T01:00:06.953Z,14.9
2016-07-03T01:00:16.950Z,14.9
2016-07-03T01:00:26.946Z,14.8
2016-07-03T01:00:36.940Z,14.9
2016-07-03T01:00:46.936Z,14.8
2016-07-03T01:00:56.931Z,14.8
2016-07-03T01:01:06.926Z,14.8
2016-07-03T01:01:16.918Z,14.8
2016-07-03T01:01:26.914Z,14.9
2016-07-03T01:01:36.911Z,14.9
2016-07-03T01:01:46.906Z,15
2016-07-03T01:01:56.899Z,15
2016-07-03T01:02:06.896Z,14.9
2016-07-03T01:02:16.890Z,14.8
2016-07-03T01:02:26.884Z,14.9
2016-07-03T01:02:36.880Z,15
2016-07-03T01:02:46.875Z,15
2016-07-03T01:02:56.868Z,14.9
2016-07-03T01:03:06.865Z,14.8
2016-07-03T01:03:16.858Z,14.9
2016-07-03T01:03:26.855Z,14.9
2016-07-03T01:03:36.847Z,14.9
2016-07-03T01:03:46.843Z,14.9
2016-07-03T01:03:56.841Z,14.9
2016-07-03T01:04:06.835Z,14.8
2016-07-03T01:04:16.829Z,14.9
2016-07-03T01:04:26.825Z,14.8
2016-07-03T01:04:36.816Z,14.8
2016-07-03T01:04:46.814Z,14.8
2016-07-03T01:04:56.809Z,14.8
2016-07-03T01:05:06.803Z,14.9
2016-07-03T01:05:16.799Z,14.8
2016-07-03T01:05:26.794Z,14.8
2016-07-03T01:05:36.789Z,14.8
2016-07-03T01:05:46.783Z,14.8
2016-07-03T01:05:56.778Z,14.8
2016-07-03T01:06:06.773Z,14.9
2016-07-03T01:06:16.768Z,14.8
2016-07-03T01:06:26.764Z,14.8
2016-07-03T01:06:36.758Z,14.8
2016-07-03T01:06:46.754Z,14.8
2016-07-03T01:06:56.748Z,14.8
2016-07-03T01:07:06.745Z,14.8
2016-07-03T01:07:16.737Z,14.8
2016-07-03T01:07:26.735Z,14.8
2016-07-03T01:07:36.729Z,14.8
2016-07-03T01:07:46.723Z,14.9
2016-07-03T01:07:56.721Z,14.8
2016-07-03T01:08:06.712Z,14.7
2016-07-03T01:08:16.706Z,14.8
2016-07-03T01:08:26.703Z,14.8
2016-07-03T01:08:36.698Z,14.8
2016-07-03T01:08:46.692Z,14.8
2016-07-03T01:08:56.688Z,14.8
2016-07-03T01:09:06.682Z,14.8
2016-07-03T01:09:16.677Z,14.9
2016-07-03T01:09:26.673Z,14.8
2016-07-03T01:09:36.667Z,14.8
2016-07-03T01:09:46.663Z,14.8
2016-07-03T01:09:56.656Z,14.8
2016-07-03T01:10:06.651Z,14.8
2016-07-03T01:10:16.644Z,14.8
2016-07-03T01:10:26.642Z,14.8
2016-07-03T01:10:36.637Z,14.9
2016-07-03T01:10:46.631Z,14.8
2016-07-03T01:10:56.626Z,14.8
2016-07-03T01:11:06.628Z,14.8
2016-07-03T01:11:16.616Z,14.8
2016-07-03T01:11:26.611Z,14.8
2016-07-03T01:11:36.606Z,14.8
2016-07-03T01:11:46.600Z,14.8
2016-07-03T01:11:56.593Z,14.8
2016-07-03T01:12:06.589Z,14.8
2016-07-03T01:12:16.584Z,14.8
2016-07-03T01:12:26.578Z,14.8
2016-07-03T01:12:36.573Z,14.8
2016-07-03T01:12:46.568Z,14.9
2016-07-03T01:12:56.563Z,14.9
2016-07-03T01:13:06.558Z,14.8
2016-07-03T01:13:16.554Z,14.8
2016-07-03T01:13:26.549Z,14.8
2016-07-03T01:13:36.542Z,14.8
2016-07-03T01:13:46.538Z,14.9
2016-07-03T01:13:56.532Z,14.7
2016-07-03T01:14:06.527Z,14.7
2016-07-03T01:14:16.522Z,14.8
2016-07-03T01:14:26.517Z,14.8
2016-07-03T01:14:36.513Z,14.8
2016-07-03T01:14:46.507Z,14.8
2016-07-03T01:14:56.503Z,14.8
2016-07-03T01:15:06.498Z,14.8
2016-07-03T01:15:16.492Z,14.8
2016-07-03T01:15:26.487Z,14.8
2016-07-03T01:15:36.482Z,14.8
2016-07-03T01:15:46.477Z,14.8
2016-07-03T01:15:56.470Z,14.7
2016-07-03T01:16:06.466Z,14.8
2016-07-03T01:16:16.461Z,14.7
2016-07-03T01:16:26.456Z,14.7
2016-07-03T01:16:36.455Z,14.8
2016-07-03T01:16:46.449Z,14.7
2016-07-03T01:16:56.446Z,14.7
2016-07-03T01:17:06.438Z,14.7
2016-07-03T01:17:16.433Z,14.7
2016-07-03T01:17:26.429Z,14.7
2016-07-03T01:17:36.423Z,14.7
2016-07-03T01:17:46.417Z,14.7
2016-07-03T01:17:56.413Z,14.7
2016-07-03T01:18:06.408Z,14.7
2016-07-03T01:18:16.403Z,14.7
2016-07-03T01:18:26.397Z,14.7
2016-07-03T01:18:36.393Z,14.8
2016-07-03T01:18:46.388Z,14.8
2016-07-03T01:18:56.383Z,14.7
2016-07-03T01:19:06.379Z,14.8
2016-07-03T01:19:16.372Z,14.7
2016-07-03T01:19:26.368Z,14.7
2016-07-03T01:19:36.363Z,14.7
2016-07-03T01:19:46.358Z,14.8
2016-07-03T01:19:56.353Z,14.7
2016-07-03T01:20:06.347Z,14.7
2016-07-03T01:20:16.341Z,14.7
2016-07-03T01:20:26.336Z,14.8
2016-07-03T01:20:36.330Z,14.8
2016-07-03T01:20:46.327Z,14.7
2016-07-03T01:20:56.321Z,14.7
2016-07-03T01:21:06.317Z,14.7
2016-07-03T01:21:16.318Z,14.7
2016-07-03T01:21:26.312Z,14.6
2016-07-03T01:21:36.309Z,14.6
2016-07-03T01:21:46.298Z,14.7
2016-07-03T01:21:56.292Z,14.7
2016-07-03T01:22:06.288Z,14.7
2016-07-03T01:22:16.282Z,14.7
2016-07-03T01:22:26.276Z,14.6
2016-07-03T01:22:36.274Z,14.6
2016-07-03T01:22:46.267Z,14.6
2016-07-03T01:22:56.261Z,14.6
2016-07-03T01:23:06.260Z,14.6
2016-07-03T01:23:16.249Z,14.7
2016-07-03T01:23:26.246Z,14.7
2016-07-03T01:23:36.241Z,14.6
2016-07-03T01:23:46.236Z,14.7
2016-07-03T01:23:56.240Z,14.6
2016-07-03T01:24:06.226Z,14.6
2016-07-03T01:24:16.220Z,14.6
2016-07-03T01:24:26.215Z,14.7
2016-07-03T01:24:36.212Z,14.7
2016-07-03T01:24:46.206Z,14.7
2016-07-03T01:24:56.200Z,14.6
2016-07-03T01:25:06.195Z,14.6
2016-07-03T01:25:16.190Z,14.6
2016-07-03T01:25:26.185Z,14.7
2016-07-03T01:25:36.180Z,14.6
2016-07-03T01:25:46.175Z,14.6
2016-07-03T01:25:56.170Z,14.7
2016-07-03T01:26:06.161Z,14.7
2016-07-03T01:26:16.159Z,14.7
2016-07-03T01:26:26.154Z,14.7
2016-07-03T01:26:36.149Z,14.7
2016-07-03T01:26:46.143Z,14.7
2016-07-03T01:26:56.140Z,14.6
2016-07-03T01:27:06.134Z,14.6
2016-07-03T01:27:16.129Z,14.6
2016-07-03T01:27:26.123Z,14.6
2016-07-03T01:27:36.120Z,14.7
2016-07-03T01:27:46.113Z,14.7
2016-07-03T01:27:56.109Z,14.6
2016-07-03T01:28:06.106Z,14.6
2016-07-03T01:28:16.099Z,14.6
2016-07-03T01:28:26.094Z,14.7
2016-07-03T01:28:36.085Z,14.6
2016-07-03T01:28:46.083Z,14.6
2016-07-03T01:28:56.079Z,14.6
2016-07-03T01:29:06.074Z,14.7
2016-07-03T01:29:16.068Z,14.7
2016-07-03T01:29:26.065Z,14.7
2016-07-03T01:29:36.059Z,14.7
2016-07-03T01:29:46.054Z,14.6
2016-07-03T01:29:56.048Z,14.6
2016-07-03T01:30:06.041Z,14.7
2016-07-03T01:30:16.038Z,14.7
2016-07-03T01:30:26.030Z,14.6
2016-07-03T01:30:36.027Z,14.6
2016-07-03T01:30:46.021Z,14.6
2016-07-03T01:30:56.014Z,14.6
2016-07-03T01:31:06.009Z,14.6
2016-07-03T01:31:16.004Z,14.6
2016-07-03T01:31:26.001Z,14.6
2016-07-03T01:31:35.997Z,14.6
2016-07-03T01:31:45.991Z,14.6
2016-07-03T01:31:55.984Z,14.6
2016-07-03T01:32:05.979Z,14.7
2016-07-03T01:32:15.973Z,14.7
2016-07-03T01:32:25.971Z,14.6
2016-07-03T01:32:35.965Z,14.6
2016-07-03T01:32:45.960Z,14.6
2016-07-03T01:32:55.955Z,14.7
2016-07-03T01:33:05.950Z,14.7
2016-07-03T01:33:15.943Z,14.7
2016-07-03T01:33:25.940Z,14.7
2016-07-03T01:33:35.935Z,14.6
2016-07-03T01:33:45.927Z,14.7
2016-07-03T01:33:55.922Z,14.6
2016-07-03T01:34:05.917Z,14.7
2016-07-03T01:34:15.915Z,14.6
2016-07-03T01:34:25.910Z,14.6
2016-07-03T01:34:35.901Z,14.6
2016-07-03T01:34:45.899Z,14.5
2016-07-03T01:34:55.893Z,14.6
2016-07-03T01:35:05.889Z,14.6
2016-07-03T01:35:15.881Z,14.6
2016-07-03T01:35:25.877Z,14.6
2016-07-03T01:35:35.876Z,14.6
2016-07-03T01:35:45.868Z,14.7
2016-07-03T01:35:55.862Z,14.7
2016-07-03T01:36:05.857Z,14.5
2016-07-03T01:36:15.850Z,14.6
2016-07-03T01:36:25.848Z,14.7
2016-07-03T01:36:35.842Z,14.6
2016-07-03T01:36:45.835Z,14.6
2016-07-03T01:36:55.831Z,14.5
2016-07-03T01:37:05.824Z,14.5
2016-07-03T01:37:15.822Z,14.5
2016-07-03T01:37:25.817Z,14.5
2016-07-03T01:37:35.813Z,14.6
2016-07-03T01:37:45.808Z,14.5
2016-07-03T01:37:55.800Z,14.5
2016-07-03T01:38:05.794Z,14.7
2016-07-03T01:38:15.791Z,14.6
2016-07-03T01:38:25.785Z,14.6
2016-07-03T01:38:35.780Z,14.5
2016-07-03T01:38:45.777Z,14.5
2016-07-03T01:38:55.771Z,14.6
2016-07-03T01:39:05.766Z,14.6
2016-07-03T01:39:15.758Z,14.6
2016-07-03T01:39:25.754Z,14.6
2016-07-03T01:39:35.751Z,14.6
2016-07-03T01:39:45.744Z,14.6
2016-07-03T01:39:55.744Z,14.6
2016-07-03T01:40:05.738Z,14.6
2016-07-03T01:40:15.730Z,14.7
2016-07-03T01:40:25.727Z,14.6
2016-07-03T01:40:35.721Z,14.5
2016-07-03T01:40:45.714Z,14.6
2016-07-03T01:40:55.712Z,14.6
2016-07-03T01:41:05.705Z,14.6
2016-07-03T01:41:15.699Z,14.6
2016-07-03T01:41:25.695Z,14.6
2016-07-03T01:41:35.690Z,14.6
2016-07-03T01:41:45.685Z,14.5
2016-07-03T01:41:55.679Z,14.5
2016-07-03T01:42:05.675Z,14.6
2016-07-03T01:42:15.671Z,14.5
2016-07-03T01:42:25.665Z,14.6
2016-07-03T01:42:35.661Z,14.6
2016-07-03T01:42:45.656Z,14.6
2016-07-03T01:42:55.649Z,14.5
2016-07-03T01:43:05.645Z,14.5
2016-07-03T01:43:15.639Z,14.6
2016-07-03T01:43:25.835Z,14.5
2016-07-03T01:43:35.627Z,14.5
2016-07-03T01:43:45.624Z,14.5
2016-07-03T01:43:55.620Z,14.6
2016-07-03T01:44:05.613Z,14.6
2016-07-03T01:44:15.609Z,14.6
2016-07-03T01:44:25.604Z,14.6
2016-07-03T01:44:35.599Z,14.6
2016-07-03T01:44:45.594Z,14.6
2016-07-03T01:44:55.590Z,14.6
2016-07-03T01:45:05.583Z,14.6
2016-07-03T01:45:15.578Z,14.5
2016-07-03T01:45:25.573Z,14.6
2016-07-03T01:45:35.569Z,14.5
2016-07-03T01:45:45.563Z,14.5
2016-07-03T01:45:55.558Z,14.6
2016-07-03T01:46:05.553Z,14.6
2016-07-03T01:46:15.548Z,14.5
2016-07-03T01:46:25.543Z,14.5
2016-07-03T01:46:35.536Z,14.5
2016-07-03T01:46:45.533Z,14.6
2016-07-03T01:46:55.527Z,14.6
2016-07-03T01:47:05.523Z,14.5
2016-07-03T01:47:15.516Z,14.6
2016-07-03T01:47:25.510Z,14.6
2016-07-03T01:47:35.508Z,14.5
2016-07-03T01:47:45.502Z,14.5
2016-07-03T01:47:55.497Z,14.5
2016-07-03T01:48:05.493Z,14.6
2016-07-03T01:48:15.487Z,14.5
2016-07-03T01:48:25.482Z,14.6
2016-07-03T01:48:35.476Z,14.6
2016-07-03T01:48:45.471Z,14.6
2016-07-03T01:48:55.464Z,14.5
2016-07-03T01:49:05.460Z,14.6
2016-07-03T01:49:15.455Z,14.6
2016-07-03T01:49:25.453Z,14.6
2016-07-03T01:49:35.446Z,14.6
2016-07-03T01:49:45.442Z,14.6
2016-07-03T01:49:55.435Z,14.5
2016-07-03T01:50:05.430Z,14.5
2016-07-03T01:50:15.426Z,14.6
2016-07-03T01:50:25.418Z,14.5
2016-07-03T01:50:35.416Z,14.5
2016-07-03T01:50:45.408Z,14.5
2016-07-03T01:50:55.403Z,14.5
2016-07-03T01:51:05.399Z,14.5
2016-07-03T01:51:15.394Z,14.5
2016-07-03T01:51:25.389Z,14.5
2016-07-03T01:51:35.386Z,14.6
2016-07-03T01:51:45.378Z,14.5
2016-07-03T01:51:55.373Z,14.5
2016-07-03T01:52:05.370Z,14.5
2016-07-03T01:52:15.363Z,14.6
2016-07-03T01:52:25.357Z,14.5
2016-07-03T01:52:35.352Z,14.5
2016-07-03T01:52:45.350Z,14.6
2016-07-03T01:52:55.343Z,14.5
2016-07-03T01:53:05.336Z,14.5
2016-07-03T01:53:15.331Z,14.5
2016-07-03T01:53:25.326Z,14.5
2016-07-03T01:53:35.323Z,14.5
2016-07-03T01:53:45.317Z,14.5
2016-07-03T01:53:55.312Z,14.5
2016-07-03T01:54:05.305Z,14.5
2016-07-03T01:54:15.300Z,14.5
2016-07-03T01:54:25.295Z,14.5
2016-07-03T01:54:35.291Z,14.5
2016-07-03T01:54:45.286Z,14.5
2016-07-03T01:54:55.281Z,14.4
2016-07-03T01:55:05.275Z,14.4
2016-07-03T01:55:15.270Z,14.5
2016-07-03T01:55:25.267Z,14.4
2016-07-03T01:55:35.261Z,14.4
2016-07-03T01:55:45.254Z,14.4
2016-07-03T01:55:55.252Z,14.4
2016-07-03T01:56:05.246Z,14.4
2016-07-03T01:56:15.242Z,14.5
2016-07-03T01:56:25.234Z,14.5
2016-07-03T01:56:35.227Z,14.5
2016-07-03T01:56:45.223Z,14.6
2016-07-03T01:56:55.220Z,14.5
2016-07-03T01:57:05.213Z,14.4
2016-07-03T01:57:15.211Z,14.5
2016-07-03T01:57:25.205Z,14.5
2016-07-03T01:57:35.200Z,14.5
2016-07-03T01:57:45.197Z,14.5
2016-07-03T01:57:55.187Z,14.5
2016-07-03T01:58:05.184Z,14.4
2016-07-03T01:58:15.179Z,14.5
2016-07-03T01:58:25.172Z,14.5
2016-07-03T01:58:35.168Z,14.5
2016-07-03T01:58:45.163Z,14.5
2016-07-03T01:58:55.158Z,14.4
2016-07-03T01:59:05.151Z,14.5
2016-07-03T01:59:15.149Z,14.5
2016-07-03T01:59:25.141Z,14.5
2016-07-03T01:59:35.140Z,14.5
2016-07-03T01:59:45.136Z,14.6
2016-07-03T01:59:55.129Z,14.5
2016-07-03T02:00:05.126Z,14.5
2016-07-03T02:00:15.120Z,14.4
2016-07-03T02:00:25.115Z,14.4
2016-07-03T02:00:35.109Z,14.4
2016-07-03T02:00:45.104Z,14.4
2016-07-03T02:00:55.099Z,14.4
2016-07-03T02:01:05.095Z,14.4
2016-07-03T02:01:15.087Z,14.4
2016-07-03T02:01:25.082Z,14.4
2016-07-03T02:01:35.090Z,14.4
2016-07-03T02:01:45.073Z,14.4
2016-07-03T02:01:55.068Z,14.4
2016-07-03T02:02:05.063Z,14.4
2016-07-03T02:02:15.059Z,14.4
2016-07-03T02:02:25.052Z,14.4
2016-07-03T02:02:35.049Z,14.4
2016-07-03T02:02:45.044Z,14.4
2016-07-03T02:02:55.038Z,14.4
2016-07-03T02:03:05.033Z,14.4
2016-07-03T02:03:15.027Z,14.5
2016-07-03T02:03:25.026Z,14.4
2016-07-03T02:03:35.018Z,14.4
2016-07-03T02:03:45.010Z,14.4
2016-07-03T02:03:55.007Z,14.4
2016-07-03T02:04:05.002Z,14.4
2016-07-03T02:04:14.997Z,14.4
2016-07-03T02:04:24.994Z,14.5
2016-07-03T02:04:34.987Z,14.4
2016-07-03T02:04:44.988Z,14.4
2016-07-03T02:04:54.977Z,14.4
2016-07-03T02:05:04.971Z,14.4
2016-07-03T02:05:14.967Z,14.4
2016-07-03T02:05:24.963Z,14.4
2016-07-03T02:05:34.957Z,14.4
2016-07-03T02:05:44.951Z,14.4
2016-07-03T02:05:54.946Z,14.5
2016-07-03T02:06:04.942Z,14.4
2016-07-03T02:06:14.936Z,14.4
2016-07-03T02:06:24.931Z,14.4
2016-07-03T02:06:34.926Z,14.4
2016-07-03T02:06:44.922Z,14.4
2016-07-03T02:06:54.915Z,14.4
2016-07-03T02:07:04.910Z,14.4
2016-07-03T02:07:14.905Z,14.4
2016-07-03T02:07:24.900Z,14.4
2016-07-03T02:07:34.896Z,14.4
2016-07-03T02:07:44.890Z,14.4
2016-07-03T02:07:54.886Z,14.4
2016-07-03T02:08:04.881Z,14.4
2016-07-03T02:08:14.876Z,14.4
2016-07-03T02:08:24.870Z,14.4
2016-07-03T02:08:34.864Z,14.4
2016-07-03T02:08:44.860Z,14.4
2016-07-03T02:08:54.854Z,14.4
2016-07-03T02:09:04.849Z,14.4
2016-07-03T02:09:14.844Z,14.4
2016-07-03T02:09:24.839Z,14.4
2016-07-03T02:09:34.835Z,14.4
2016-07-03T02:09:44.830Z,14.4
2016-07-03T02:09:54.825Z,14.4
2016-07-03T02:10:04.819Z,14.4
2016-07-03T02:10:14.814Z,14.4
2016-07-03T02:10:24.808Z,14.4
2016-07-03T02:10:34.803Z,14.4
2016-07-03T02:10:44.799Z,14.4
2016-07-03T02:10:54.794Z,14.4
2016-07-03T02:11:04.787Z,14.4
2016-07-03T02:11:14.781Z,14.4
2016-07-03T02:11:24.773Z,14.3
2016-07-03T02:11:34.773Z,14.4
2016-07-03T02:11:44.768Z,14.4
2016-07-03T02:11:54.763Z,14.4
2016-07-03T02:12:04.758Z,14.4
2016-07-03T02:12:14.753Z,14.4
2016-07-03T02:12:24.747Z,14.4
2016-07-03T02:12:34.741Z,14.3
2016-07-03T02:12:44.739Z,14.4
2016-07-03T02:12:54.733Z,14.4
2016-07-03T02:13:04.726Z,14.4
2016-07-03T02:13:14.722Z,14.4
2016-07-03T02:13:24.719Z,14.4
2016-07-03T02:13:34.710Z,14.4
2016-07-03T02:13:44.707Z,14.4
2016-07-03T02:13:54.701Z,14.3
2016-07-03T02:14:04.696Z,14.4
2016-07-03T02:14:14.696Z,14.4